createdAt,value
2018-08-02T00:03:46.601Z,3.7
2018-08-02T00:13:50.181Z,3.5
2018-08-02T00:23:57.106Z,2.4
2018-08-02T00:34:00.904Z,3.1
2018-08-02T00:44:07.645Z,3.2
2018-08-02T00:54:11.986Z,3
2018-08-02T01:04:17.404Z,3.2
2018-08-02T01:14:26.658Z,3.3
2018-08-02T01:24:28.476Z,3.1
2018-08-02T01:34:28.804Z,4.4
2018-08-02T01:44:33.269Z,4.6
2018-08-02T01:54:44.796Z,4.5
2018-08-02T02:04:45.466Z,4
2018-08-02T02:14:45.619Z,4.3
2018-08-02T02:24:49.027Z,3.5
2018-08-02T02:35:01.964Z,3.6
2018-08-02T02:45:10.530Z,4.2
2018-08-02T02:55:16.767Z,3.4
2018-08-02T03:05:21.509Z,3.5
2018-08-02T03:15:30.175Z,3.5
2018-08-02T03:25:33.802Z,3.6
2018-08-02T03:35:40.988Z,3.5
2018-08-02T03:45:51.774Z,3.4
2018-08-02T03:55:54.899Z,3.9
2018-08-02T04:06:04.538Z,3.2
2018-08-02T04:16:09.950Z,2.9
2018-08-02T04:26:18.593Z,3.7
2018-08-02T04:36:22.733Z,3.8
2018-08-02T04:46:25.559Z,4.2
2018-08-02T04:56:25.710Z,3.7
2018-08-02T05:06:31.883Z,3.5
2018-08-02T05:16:33.052Z,3.5
2018-08-02T05:26:37.401Z,3.1
2018-08-02T05:36:45.822Z,3
2018-08-02T05:46:50.452Z,3.1
2018-08-02T05:56:50.232Z,2.9
2018-08-02T06:06:54.610Z,2.8
2018-08-02T06:16:55.168Z,2.6
2018-08-02T06:26:55.126Z,2.8
2018-08-02T06:36:57.855Z,2.3
2018-08-02T06:47:11.257Z,2
2018-08-02T06:57:17.464Z,2.3
2018-08-02T07:07:28.505Z,2
2018-08-02T07:17:43.617Z,2.6
2018-08-02T07:27:56.211Z,2.4
2018-08-02T07:38:08.603Z,1.5
2018-08-02T07:48:29.707Z,2.8
2018-08-02T07:58:36.533Z,2.4
2018-08-02T08:08:44.296Z,2.8
2018-08-02T08:18:51.942Z,2.5
2018-08-02T08:29:00.414Z,2.9
2018-08-02T08:39:04.841Z,3
2018-08-02T08:49:10.281Z,3.6
2018-08-02T08:59:19.499Z,2.8
2018-08-02T09:09:23.460Z,3.2
2018-08-02T09:19:32.420Z,2.7
2018-08-02T09:29:41.018Z,3
2018-08-02T09:39:56.731Z,3.5
2018-08-02T09:50:14.310Z,3.6
2018-08-02T10:00:31.463Z,3.9
2018-08-02T10:10:41.798Z,3.7
2018-08-02T10:20:45.715Z,3.6
2018-08-02T10:30:50.216Z,3.6
2018-08-02T10:40:54.124Z,4.5
2018-08-02T10:50:54.432Z,4.5
2018-08-02T11:00:55.349Z,4.7
2018-08-02T11:10:57.342Z,3.9
2018-08-02T11:21:02.897Z,5.2
2018-08-02T11:31:03.471Z,4.4
2018-08-02T11:41:06.847Z,5.2
2018-08-02T11:51:15.063Z,5.1
2018-08-02T12:01:18.075Z,6.1
2018-08-02T12:11:26.677Z,5.8
2018-08-02T12:21:27.478Z,5.8
2018-08-02T12:31:38.710Z,5.7
2018-08-02T12:41:48.525Z,6.3
2018-08-02T12:51:49.725Z,5.7
2018-08-02T13:01:52.154Z,7.1
2018-08-02T13:11:54.677Z,5.7
2018-08-02T13:21:55.813Z,6.8
2018-08-02T13:32:00.002Z,6.2
2018-08-02T13:42:09.267Z,6.5
2018-08-02T13:52:11.580Z,6.9
2018-08-02T14:02:22.587Z,6.3
2018-08-02T14:12:26.626Z,6.5
2018-08-02T14:22:41.312Z,7.3
2018-08-02T14:33:18.418Z,7.1
2018-08-02T14:43:54.155Z,6.6
2018-08-02T14:54:19.546Z,6.8
2018-08-02T15:04:53.286Z,6.1
2018-08-02T15:15:06.819Z,7.1
2018-08-02T15:25:21.279Z,7.5
2018-08-02T15:35:34.745Z,7.6
2018-08-02T15:45:48.946Z,7.6
2018-08-02T15:55:59.913Z,7
2018-08-02T16:06:10.716Z,8.4
2018-08-02T16:16:39.603Z,7.3
2018-08-02T16:27:00.690Z,7.4
2018-08-02T16:37:14.750Z,7.7
2018-08-02T16:47:26.054Z,6.7
2018-08-02T16:57:44.382Z,7
2018-08-02T17:08:01.721Z,6.1
2018-08-02T17:18:24.873Z,6.8
2018-08-02T17:28:29.833Z,7
2018-08-02T17:38:41.049Z,6.8
2018-08-02T17:48:42.241Z,7
2018-08-02T17:58:46.445Z,7.7
2018-08-02T18:08:46.754Z,7.1
2018-08-02T18:18:46.681Z,6.6
2018-08-02T18:28:47.144Z,7.1
2018-08-02T18:38:52.777Z,7.9
2018-08-02T18:48:53.974Z,9.5
2018-08-02T18:58:54.812Z,6.9
2018-08-02T19:08:54.704Z,8.1
2018-08-02T19:18:56.008Z,6.8
2018-08-02T19:28:56.289Z,6.8
2018-08-02T19:38:56.287Z,5.2
2018-08-02T19:48:57.403Z,4.6
2018-08-02T19:58:57.695Z,4.9
2018-08-02T20:09:00.287Z,3.7
2018-08-02T20:19:03.071Z,6.1
2018-08-02T20:29:03.633Z,5.3
2018-08-02T20:39:03.339Z,4.4
2018-08-02T20:49:03.026Z,4.2
2018-08-02T20:59:07.914Z,5
2018-08-02T21:09:07.731Z,4.9
2018-08-02T21:19:07.465Z,3.8
2018-08-02T21:29:07.433Z,5.1
2018-08-02T21:39:07.173Z,5.1
2018-08-02T21:49:12.356Z,4.5
2018-08-02T21:59:21.855Z,5.4
2018-08-02T22:09:24.723Z,5.8
2018-08-02T22:19:27.244Z,5.7
2018-08-02T22:29:31.734Z,5.8
2018-08-02T22:39:35.427Z,5.7
2018-08-02T22:49:35.365Z,5.5
2018-08-02T22:59:38.831Z,5.6
2018-08-02T23:09:42.514Z,6.2
2018-08-02T23:19:42.280Z,5.6
2018-08-02T23:29:47.780Z,5.8
2018-08-02T23:39:47.541Z,6.4
2018-08-02T23:49:51.309Z,6.2
2018-08-02T23:59:53.462Z,6.7
